Springdale, Nebraska
Current Conditions -  °F | °C
As of 5:53 AM on Monday 20 Oct 2014 (Local Time) from KODX Reporting Station
Clear Clear  
Wind Chill: 33°   Ceiling: Unl
Heat Index: 37°   Visibility: NA
Dew Point: 34°   Wind: 5mph
Humidity: 89%   Direction: 280°W
Pressure: 30.07"   Gusts: NA
Location:  41.579°N, 98.9733°W
Report Text: KODX 201053Z AUTO 28004KT CLR 03/01 A3007 RMK AO2 SLP185 T00280011 $
Loading
Personal Weather Stations






























Interactive Weather Map
Tropical Storm Tracking
New forecast layout! Learn more

10-Day Weather Forecast

Advertisements
Track Severe Weather on mobile